createdAt,value
2023-01-12T00:02:42.062Z,213347.00
2023-01-12T00:08:44.331Z,213366.00
2023-01-12T00:14:46.649Z,213327.00
2023-01-12T00:20:48.729Z,213353.00
2023-01-12T00:26:50.990Z,213366.00
2023-01-12T00:32:52.933Z,213366.00
2023-01-12T00:38:55.104Z,213366.00
2023-01-12T00:45:15.872Z,213341.00
2023-01-12T00:51:18.013Z,213366.00
2023-01-12T00:57:20.316Z,213341.00
2023-01-12T01:03:22.744Z,213394.00
2023-01-12T01:09:24.861Z,213414.00
2023-01-12T01:15:27.204Z,213394.00
2023-01-12T01:21:29.189Z,213394.00
2023-01-12T01:27:31.469Z,213394.00
2023-01-12T01:33:34.225Z,213414.00
2023-01-12T01:39:36.444Z,213366.00
2023-01-12T01:45:38.752Z,213341.00
2023-01-12T01:51:42.064Z,213353.00
2023-01-12T01:58:01.327Z,213347.00
2023-01-12T02:04:04.063Z,213420.00
2023-01-12T02:10:06.496Z,213440.00
2023-01-12T02:16:20.976Z,213420.00
2023-01-12T02:22:52.751Z,213440.00
2023-01-12T02:29:22.183Z,213420.00
2023-01-12T02:35:50.425Z,213394.00
2023-01-12T02:42:30.150Z,213400.00
2023-01-12T02:48:38.980Z,213341.00
2023-01-12T02:54:43.323Z,213394.00
2023-01-12T03:00:48.415Z,213440.00
2023-01-12T03:06:56.442Z,213428.00
2023-01-12T03:13:01.645Z,213492.00
2023-01-12T03:19:10.867Z,213434.00
2023-01-12T03:25:17.705Z,213456.00
2023-01-12T03:31:21.129Z,213468.00
2023-01-12T03:37:32.632Z,213456.00
2023-01-12T03:43:49.061Z,213520.00
2023-01-12T03:49:56.370Z,213456.00
2023-01-12T03:56:04.640Z,213448.00
2023-01-12T04:02:06.690Z,213456.00
2023-01-12T04:08:09.476Z,213456.00
2023-01-12T04:14:11.639Z,213486.00
2023-01-12T04:20:13.958Z,213492.00
2023-01-12T04:26:17.621Z,213456.00
2023-01-12T04:32:19.671Z,213456.00
2023-01-12T04:38:22.022Z,213428.00
2023-01-12T04:44:24.087Z,213456.00
2023-01-12T04:50:26.314Z,213448.00
2023-01-12T04:56:28.408Z,213486.00
2023-01-12T05:02:30.463Z,213486.00
2023-01-12T05:09:08.275Z,213420.00
2023-01-12T05:15:10.880Z,213434.00
2023-01-12T05:21:18.170Z,213428.00
2023-01-12T05:27:20.186Z,213486.00
2023-01-12T05:33:22.140Z,213526.00
2023-01-12T05:39:24.115Z,213512.00
2023-01-12T05:45:26.489Z,213468.00
2023-01-12T05:51:31.121Z,213448.00
2023-01-12T05:57:33.323Z,213512.00
2023-01-12T06:03:36.006Z,213468.00
2023-01-12T06:09:38.045Z,213520.00
2023-01-12T06:15:40.366Z,213498.00
2023-01-12T06:21:42.349Z,213566.00
2023-01-12T06:27:44.603Z,213627.00
2023-01-12T06:33:46.693Z,213614.00
2023-01-12T06:39:48.610Z,213641.00
2023-01-12T06:45:53.413Z,213566.00
2023-01-12T06:51:55.861Z,213600.00
2023-01-12T06:58:01.235Z,213667.00
2023-01-12T07:04:03.597Z,213614.00
2023-01-12T07:10:06.814Z,213600.00
2023-01-12T07:16:09.178Z,213600.00
2023-01-12T07:22:11.254Z,213693.00
2023-01-12T07:28:13.718Z,213667.00
2023-01-12T07:34:16.150Z,213673.00
2023-01-12T07:40:18.584Z,213667.00
2023-01-12T07:46:20.753Z,213727.00
2023-01-12T07:52:23.288Z,213659.00
2023-01-12T07:58:27.794Z,213746.00
2023-01-12T08:04:30.129Z,213793.00
2023-01-12T08:10:32.109Z,213887.00
2023-01-12T08:16:40.971Z,213946.00
2023-01-12T08:22:46.466Z,213962.00
2023-01-12T08:28:53.667Z,213867.00
2023-01-12T08:35:00.328Z,214024.00
2023-01-12T08:41:22.419Z,214066.00
2023-01-12T08:47:27.616Z,213974.00
2023-01-12T08:53:30.001Z,214066.00
2023-01-12T08:59:32.613Z,214120.00
2023-01-12T09:05:34.909Z,214126.00
2023-01-12T09:11:39.377Z,214213.00
2023-01-12T09:17:41.753Z,214274.00
2023-01-12T09:23:44.824Z,214187.00
2023-01-12T09:29:46.915Z,214247.00
2023-01-12T09:35:49.284Z,214213.00
2023-01-12T09:42:09.845Z,214293.00
2023-01-12T09:48:13.642Z,214167.00
2023-01-12T09:54:15.856Z,214159.00
2023-01-12T10:00:19.834Z,214279.00
2023-01-12T10:06:22.243Z,214442.00
2023-01-12T10:12:30.908Z,214462.00
2023-01-12T10:18:44.370Z,214527.00
2023-01-12T10:24:48.536Z,214476.00
2023-01-12T10:30:51.066Z,214454.00
2023-01-12T10:36:59.054Z,214460.00
2023-01-12T10:43:24.399Z,214448.00
2023-01-12T10:49:27.468Z,214422.00
2023-01-12T10:55:32.696Z,214546.00
2023-01-12T11:01:48.557Z,214546.00
2023-01-12T11:07:50.784Z,214508.00
2023-01-12T11:13:55.848Z,214527.00
2023-01-12T11:20:00.904Z,214482.00
2023-01-12T11:26:14.059Z,214353.00
2023-01-12T11:32:33.076Z,214442.00
2023-01-12T11:38:45.265Z,214488.00
2023-01-12T11:44:55.461Z,214409.00
2023-01-12T11:50:59.386Z,214502.00
2023-01-12T11:57:20.128Z,214546.00
2023-01-12T12:03:39.115Z,214533.00
2023-01-12T12:10:09.749Z,214527.00
2023-01-12T12:16:18.451Z,214574.00
2023-01-12T12:22:21.070Z,214560.00
2023-01-12T12:28:42.069Z,214715.00
2023-01-12T12:35:16.713Z,214729.00
2023-01-12T12:41:58.837Z,214763.00
2023-01-12T12:48:10.028Z,214784.00
2023-01-12T12:54:17.487Z,214664.00
2023-01-12T13:00:42.991Z,214554.00
2023-01-12T13:06:49.676Z,214546.00
2023-01-12T13:13:44.290Z,214521.00
2023-01-12T13:19:53.479Z,214582.00
2023-01-12T13:25:57.997Z,214642.00
2023-01-12T13:32:28.851Z,214616.00
2023-01-12T13:38:34.183Z,214628.00
2023-01-12T13:44:43.253Z,214554.00
2023-01-12T13:50:52.714Z,214582.00
2023-01-12T13:56:58.599Z,214560.00
2023-01-12T14:03:04.450Z,214502.00
2023-01-12T14:09:30.776Z,214476.00
2023-01-12T14:15:58.647Z,214482.00
2023-01-12T14:22:03.784Z,214482.00
2023-01-12T14:28:06.193Z,214454.00
2023-01-12T14:34:21.408Z,214409.00
2023-01-12T14:40:31.008Z,214274.00
2023-01-12T14:46:33.926Z,214266.00
2023-01-12T14:52:36.175Z,214287.00
2023-01-12T14:58:38.854Z,214266.00
2023-01-12T15:05:02.834Z,214301.00
2023-01-12T15:11:10.509Z,214301.00
2023-01-12T15:17:31.304Z,214321.00
2023-01-12T15:23:53.859Z,214274.00
2023-01-12T15:29:56.351Z,214293.00
2023-01-12T15:35:58.762Z,214287.00
2023-01-12T15:42:22.088Z,214279.00
2023-01-12T15:48:24.437Z,214266.00
2023-01-12T15:54:26.826Z,214247.00
2023-01-12T16:00:28.884Z,214173.00
2023-01-12T16:06:39.874Z,214199.00
2023-01-12T16:12:42.609Z,214207.00
2023-01-12T16:18:45.481Z,214201.00
2023-01-12T16:24:51.820Z,214179.00
2023-01-12T16:30:55.939Z,214148.00
2023-01-12T16:37:00.541Z,214207.00
2023-01-12T16:43:03.508Z,214179.00
2023-01-12T16:49:05.892Z,214142.00
2023-01-12T16:55:08.374Z,214080.00
2023-01-12T17:01:13.763Z,214100.00
2023-01-12T17:07:16.392Z,214159.00
2023-01-12T17:13:19.386Z,214126.00
2023-01-12T17:19:22.081Z,214080.00
2023-01-12T17:25:25.100Z,214100.00
2023-01-12T17:31:27.362Z,214126.00
2023-01-12T17:37:29.931Z,214120.00
2023-01-12T17:43:32.234Z,214086.00
2023-01-12T17:49:34.840Z,214072.00
2023-01-12T17:55:47.525Z,214046.00
2023-01-12T18:01:50.995Z,214092.00
2023-01-12T18:07:53.966Z,214100.00
2023-01-12T18:13:56.669Z,214092.00
2023-01-12T18:20:04.484Z,214120.00
2023-01-12T18:26:09.510Z,214120.00
2023-01-12T18:32:11.957Z,214167.00
2023-01-12T18:38:13.775Z,214080.00
2023-01-12T18:44:15.990Z,213999.00
2023-01-12T18:50:36.773Z,214080.00
2023-01-12T18:56:38.794Z,214100.00
2023-01-12T19:02:42.210Z,214148.00
2023-01-12T19:09:03.046Z,214100.00
2023-01-12T19:15:24.180Z,214080.00
2023-01-12T19:21:45.386Z,214100.00
2023-01-12T19:28:25.782Z,214060.00
2023-01-12T19:34:28.091Z,214024.00
2023-01-12T19:40:37.624Z,214005.00
2023-01-12T19:46:39.809Z,213954.00
2023-01-12T19:52:43.504Z,214013.00
2023-01-12T19:58:46.055Z,213988.00
2023-01-12T20:04:48.898Z,214052.00
2023-01-12T20:10:56.180Z,214058.00
2023-01-12T20:16:58.509Z,214060.00
2023-01-12T20:23:00.546Z,214100.00
2023-01-12T20:29:02.873Z,214100.00
2023-01-12T20:35:06.123Z,214005.00
2023-01-12T20:41:09.112Z,214024.00
2023-01-12T20:47:11.297Z,214080.00
2023-01-12T20:53:14.708Z,214086.00
2023-01-12T20:59:16.889Z,214086.00
2023-01-12T21:05:19.321Z,214072.00
2023-01-12T21:11:21.564Z,214106.00
2023-01-12T21:17:23.811Z,214092.00
2023-01-12T21:23:26.391Z,214114.00
2023-01-12T21:29:28.581Z,214066.00
2023-01-12T21:35:30.873Z,214086.00
2023-01-12T21:41:52.955Z,214058.00
2023-01-12T21:47:55.728Z,214080.00
2023-01-12T21:53:57.767Z,214046.00
2023-01-12T21:59:59.825Z,214024.00
2023-01-12T22:06:07.707Z,213999.00
2023-01-12T22:12:10.432Z,213974.00
2023-01-12T22:18:12.576Z,213954.00
2023-01-12T22:24:14.708Z,213968.00
2023-01-12T22:30:19.025Z,214024.00
2023-01-12T22:36:21.067Z,214024.00
2023-01-12T22:42:46.847Z,213974.00
2023-01-12T22:48:59.715Z,213962.00
2023-01-12T22:55:01.696Z,213934.00
2023-01-12T23:01:09.538Z,213934.00
2023-01-12T23:07:11.744Z,213954.00
2023-01-12T23:13:17.436Z,213988.00
2023-01-12T23:19:19.506Z,213968.00
2023-01-12T23:25:21.585Z,213934.00
2023-01-12T23:31:26.629Z,213954.00
2023-01-12T23:37:28.857Z,213968.00
2023-01-12T23:43:34.130Z,214018.00
2023-01-12T23:49:36.204Z,214092.00
2023-01-12T23:55:39.410Z,214126.00
